sensor_id;sensor_type;location;lat;lon;timestamp;pressure;altitude;pressure_sealevel;temperature;humidity
14800;BME280;7491;57.750;11.970;2022-07-23T00:00:46;74934.66;;;-142.11;100.00
14800;BME280;7491;57.750;11.970;2022-07-23T00:03:14;74936.72;;;-142.11;100.00
14800;BME280;7491;57.750;11.970;2022-07-23T00:05:41;74950.97;;;-142.11;100.00
14800;BME280;7491;57.750;11.970;2022-07-23T00:08:08;74946.91;;;-142.11;100.00
14800;BME280;7491;57.750;11.970;2022-07-23T00:10:35;74950.97;;;-142.11;100.00
14800;BME280;7491;57.750;11.970;2022-07-23T00:13:01;74948.94;;;-142.11;100.00
14800;BME280;7491;57.750;11.970;2022-07-23T00:15:28;74955.03;;;-142.11;100.00
14800;BME280;7491;57.750;11.970;2022-07-23T00:17:54;74950.97;;;-142.11;100.00
14800;BME280;7491;57.750;11.970;2022-07-23T00:20:23;74959.13;;;-142.11;100.00
14800;BME280;7491;57.750;11.970;2022-07-23T00:22:50;74961.16;;;-142.11;100.00
14800;BME280;7491;57.750;11.970;2022-07-23T00:25:18;74969.31;;;-142.11;100.00
14800;BME280;7491;57.750;11.970;2022-07-23T00:27:45;74979.50;;;-142.11;100.00
14800;BME280;7491;57.750;11.970;2022-07-23T00:30:12;74979.50;;;-142.11;100.00
14800;BME280;7491;57.750;11.970;2022-07-23T00:32:46;74979.50;;;-142.11;100.00
14800;BME280;7491;57.750;11.970;2022-07-23T00:35:13;74981.53;;;-142.11;100.00
14800;BME280;7491;57.750;11.970;2022-07-23T00:37:41;74981.53;;;-142.11;100.00
14800;BME280;7491;57.750;11.970;2022-07-23T00:40:09;74983.56;;;-142.11;100.00
14800;BME280;7491;57.750;11.970;2022-07-23T00:42:36;74987.66;;;-142.11;100.00
14800;BME280;7491;57.750;11.970;2022-07-23T00:45:03;75003.97;;;-142.11;100.00
14800;BME280;7491;57.750;11.970;2022-07-23T00:47:30;75001.91;;;-142.11;100.00
14800;BME280;7491;57.750;11.970;2022-07-23T00:49:56;75012.09;;;-142.11;100.00
14800;BME280;7491;57.750;11.970;2022-07-23T00:52:23;75020.25;;;-142.11;100.00
14800;BME280;7491;57.750;11.970;2022-07-23T00:54:51;75040.63;;;-142.11;100.00
14800;BME280;7491;57.750;11.970;2022-07-23T00:57:18;75036.56;;;-142.11;100.00
14800;BME280;7491;57.750;11.970;2022-07-23T00:59:44;75050.81;;;-142.11;100.00
14800;BME280;7491;57.750;11.970;2022-07-23T01:02:11;75034.53;;;-142.11;100.00
14800;BME280;7491;57.750;11.970;2022-07-23T01:04:38;75042.69;;;-142.11;100.00
14800;BME280;7491;57.750;11.970;2022-07-23T01:07:04;75044.72;;;-142.11;100.00
14800;BME280;7491;57.750;11.970;2022-07-23T01:09:31;75056.94;;;-142.11;100.00
14800;BME280;7491;57.750;11.970;2022-07-23T01:11:59;75067.13;;;-142.11;100.00
14800;BME280;7491;57.750;11.970;2022-07-23T01:14:29;75056.94;;;-142.11;100.00
14800;BME280;7491;57.750;11.970;2022-07-23T01:16:56;75065.09;;;-142.11;100.00
14800;BME280;7491;57.750;11.970;2022-07-23T01:19:22;75063.06;;;-142.11;100.00
14800;BME280;7491;57.750;11.970;2022-07-23T01:21:50;75073.25;;;-142.11;100.00
14800;BME280;7491;57.750;11.970;2022-07-23T01:24:18;75097.69;;;-142.11;100.00
14800;BME280;7491;57.750;11.970;2022-07-23T01:26:47;75091.59;;;-142.11;100.00
14800;BME280;7491;57.750;11.970;2022-07-23T01:29:20;75085.47;;;-142.11;100.00
14800;BME280;7491;57.750;11.970;2022-07-23T01:31:50;75075.28;;;-142.11;100.00
14800;BME280;7491;57.750;11.970;2022-07-23T01:34:17;75075.28;;;-142.11;100.00
14800;BME280;7491;57.750;11.970;2022-07-23T01:36:46;75081.41;;;-142.11;100.00
14800;BME280;7491;57.750;11.970;2022-07-23T01:39:19;75091.59;;;-142.11;100.00
14800;BME280;7491;57.750;11.970;2022-07-23T01:41:46;75099.72;;;-142.11;100.00
14800;BME280;7491;57.750;11.970;2022-07-23T01:44:13;75099.72;;;-142.11;100.00
14800;BME280;7491;57.750;11.970;2022-07-23T01:46:39;75103.81;;;-142.11;100.00
14800;BME280;7491;57.750;11.970;2022-07-23T01:49:06;75101.78;;;-142.11;100.00
14800;BME280;7491;57.750;11.970;2022-07-23T01:51:34;75118.06;;;-142.11;100.00
14800;BME280;7491;57.750;11.970;2022-07-23T01:54:01;75118.06;;;-142.11;100.00
14800;BME280;7491;57.750;11.970;2022-07-23T01:56:29;75109.94;;;-142.11;100.00
14800;BME280;7491;57.750;11.970;2022-07-23T01:58:56;75122.16;;;-142.11;100.00
14800;BME280;7491;57.750;11.970;2022-07-23T02:01:23;75122.16;;;-142.11;100.00
14800;BME280;7491;57.750;11.970;2022-07-23T02:03:50;75114.00;;;-142.11;100.00
14800;BME280;7491;57.750;11.970;2022-07-23T02:06:17;75114.00;;;-142.11;100.00
14800;BME280;7491;57.750;11.970;2022-07-23T02:08:46;75118.06;;;-142.11;100.00
14800;BME280;7491;57.750;11.970;2022-07-23T02:11:12;75122.16;;;-142.11;100.00
14800;BME280;7491;57.750;11.970;2022-07-23T02:13:41;75120.13;;;-142.11;100.00
14800;BME280;7491;57.750;11.970;2022-07-23T02:16:07;75124.19;;;-142.11;100.00
14800;BME280;7491;57.750;11.970;2022-07-23T02:18:34;75132.34;;;-142.11;100.00
14800;BME280;7491;57.750;11.970;2022-07-23T02:21:00;75114.00;;;-142.11;100.00
14800;BME280;7491;57.750;11.970;2022-07-23T02:23:30;75122.16;;;-142.11;100.00
14800;BME280;7491;57.750;11.970;2022-07-23T02:25:59;75128.25;;;-142.11;100.00
14800;BME280;7491;57.750;11.970;2022-07-23T02:28:26;75124.19;;;-142.11;100.00
14800;BME280;7491;57.750;11.970;2022-07-23T02:30:57;75134.38;;;-142.11;100.00
14800;BME280;7491;57.750;11.970;2022-07-23T02:33:23;75148.66;;;-142.11;100.00
14800;BME280;7491;57.750;11.970;2022-07-23T02:35:50;75144.56;;;-142.11;100.00
14800;BME280;7491;57.750;11.970;2022-07-23T02:38:20;75148.66;;;-142.11;100.00
14800;BME280;7491;57.750;11.970;2022-07-23T02:40:46;75148.66;;;-142.11;100.00
14800;BME280;7491;57.750;11.970;2022-07-23T02:43:13;75144.56;;;-142.11;100.00
14800;BME280;7491;57.750;11.970;2022-07-23T02:45:39;75146.59;;;-142.11;100.00
14800;BME280;7491;57.750;11.970;2022-07-23T02:48:07;75144.56;;;-142.11;100.00
14800;BME280;7491;57.750;11.970;2022-07-23T02:50:34;75142.53;;;-142.11;100.00
14800;BME280;7491;57.750;11.970;2022-07-23T02:53:01;75150.69;;;-142.11;100.00
14800;BME280;7491;57.750;11.970;2022-07-23T02:55:27;75146.59;;;-142.11;100.00
14800;BME280;7491;57.750;11.970;2022-07-23T02:57:54;75138.44;;;-142.11;100.00
14800;BME280;7491;57.750;11.970;2022-07-23T03:00:21;75134.38;;;-142.11;100.00
14800;BME280;7491;57.750;11.970;2022-07-23T03:02:47;75146.59;;;-142.11;100.00
14800;BME280;7491;57.750;11.970;2022-07-23T03:05:15;75140.50;;;-142.11;100.00
14800;BME280;7491;57.750;11.970;2022-07-23T03:07:42;75138.44;;;-142.11;100.00
14800;BME280;7491;57.750;11.970;2022-07-23T03:10:08;75140.50;;;-142.11;100.00
14800;BME280;7491;57.750;11.970;2022-07-23T03:12:35;75142.53;;;-142.11;100.00
14800;BME280;7491;57.750;11.970;2022-07-23T03:15:02;75132.34;;;-142.11;100.00
14800;BME280;7491;57.750;11.970;2022-07-23T03:17:29;75138.44;;;-142.11;100.00
14800;BME280;7491;57.750;11.970;2022-07-23T03:19:55;75136.41;;;-142.11;100.00
14800;BME280;7491;57.750;11.970;2022-07-23T03:22:23;75132.34;;;-142.11;100.00
14800;BME280;7491;57.750;11.970;2022-07-23T03:24:50;75134.38;;;-142.11;100.00
14800;BME280;7491;57.750;11.970;2022-07-23T03:27:23;75138.44;;;-142.11;100.00
14800;BME280;7491;57.750;11.970;2022-07-23T03:29:50;75146.59;;;-142.11;100.00
14800;BME280;7491;57.750;11.970;2022-07-23T03:32:17;75140.50;;;-142.11;100.00
14800;BME280;7491;57.750;11.970;2022-07-23T03:34:44;75134.38;;;-142.11;100.00
14800;BME280;7491;57.750;11.970;2022-07-23T03:37:10;75128.25;;;-142.11;100.00
14800;BME280;7491;57.750;11.970;2022-07-23T03:39:38;75122.16;;;-142.11;100.00
14800;BME280;7491;57.750;11.970;2022-07-23T03:42:05;75122.16;;;-142.11;100.00
14800;BME280;7491;57.750;11.970;2022-07-23T03:44:32;75130.31;;;-142.11;100.00
14800;BME280;7491;57.750;11.970;2022-07-23T03:46:59;75114.00;;;-142.11;100.00
14800;BME280;7491;57.750;11.970;2022-07-23T03:49:25;75126.22;;;-142.11;100.00
14800;BME280;7491;57.750;11.970;2022-07-23T03:51:52;75118.06;;;-142.11;100.00
14800;BME280;7491;57.750;11.970;2022-07-23T03:54:19;75111.97;;;-142.11;100.00
14800;BME280;7491;57.750;11.970;2022-07-23T03:56:47;75118.06;;;-142.11;100.00
14800;BME280;7491;57.750;11.970;2022-07-23T03:59:13;75097.69;;;-142.11;100.00
14800;BME280;7491;57.750;11.970;2022-07-23T04:01:40;75085.47;;;-142.11;100.00
14800;BME280;7491;57.750;11.970;2022-07-23T04:04:06;75085.47;;;-142.11;100.00
14800;BME280;7491;57.750;11.970;2022-07-23T04:06:33;75085.47;;;-142.11;100.00
14800;BME280;7491;57.750;11.970;2022-07-23T04:09:00;75087.50;;;-142.11;100.00
14800;BME280;7491;57.750;11.970;2022-07-23T04:11:27;75079.34;;;-142.11;100.00
14800;BME280;7491;57.750;11.970;2022-07-23T04:13:55;75083.44;;;-142.11;100.00
14800;BME280;7491;57.750;11.970;2022-07-23T04:16:21;75085.47;;;-142.11;100.00
14800;BME280;7491;57.750;11.970;2022-07-23T04:18:48;75077.31;;;-142.11;100.00
14800;BME280;7491;57.750;11.970;2022-07-23T04:21:14;75079.34;;;-142.11;100.00
14800;BME280;7491;57.750;11.970;2022-07-23T04:23:41;75077.31;;;-142.11;100.00
14800;BME280;7491;57.750;11.970;2022-07-23T04:26:08;75077.31;;;-142.11;100.00
14800;BME280;7491;57.750;11.970;2022-07-23T04:28:34;75081.41;;;-142.11;100.00
14800;BME280;7491;57.750;11.970;2022-07-23T04:31:02;75077.31;;;-142.11;100.00
14800;BME280;7491;57.750;11.970;2022-07-23T04:33:29;75083.44;;;-142.11;100.00
14800;BME280;7491;57.750;11.970;2022-07-23T04:35:55;75087.50;;;-142.11;100.00
14800;BME280;7491;57.750;11.970;2022-07-23T04:38:22;75081.41;;;-142.11;100.00
14800;BME280;7491;57.750;11.970;2022-07-23T04:40:48;75081.41;;;-142.11;100.00
14800;BME280;7491;57.750;11.970;2022-07-23T04:43:15;75075.28;;;-142.11;100.00
14800;BME280;7491;57.750;11.970;2022-07-23T04:45:42;75073.25;;;-142.11;100.00
14800;BME280;7491;57.750;11.970;2022-07-23T04:48:09;75081.41;;;-142.11;100.00
14800;BME280;7491;57.750;11.970;2022-07-23T04:50:36;75077.31;;;-142.11;100.00
14800;BME280;7491;57.750;11.970;2022-07-23T04:53:03;75075.28;;;-142.11;100.00
14800;BME280;7491;57.750;11.970;2022-07-23T04:55:29;75077.31;;;-142.11;100.00
14800;BME280;7491;57.750;11.970;2022-07-23T04:57:56;75069.16;;;-142.11;100.00
14800;BME280;7491;57.750;11.970;2022-07-23T05:00:23;75061.00;;;-142.11;100.00
14800;BME280;7491;57.750;11.970;2022-07-23T05:02:49;75054.91;;;-142.11;100.00
14800;BME280;7491;57.750;11.970;2022-07-23T05:05:17;75048.78;;;-142.11;100.00
14800;BME280;7491;57.750;11.970;2022-07-23T05:07:44;75040.63;;;-142.11;100.00
14800;BME280;7491;57.750;11.970;2022-07-23T05:10:10;75026.38;;;-142.11;100.00
14800;BME280;7491;57.750;11.970;2022-07-23T05:12:37;75024.34;;;-142.11;100.00
14800;BME280;7491;57.750;11.970;2022-07-23T05:15:04;75018.22;;;-142.11;100.00
14800;BME280;7491;57.750;11.970;2022-07-23T05:17:31;75016.19;;;-142.11;100.00
14800;BME280;7491;57.750;11.970;2022-07-23T05:19:57;75014.16;;;-142.11;100.00
14800;BME280;7491;57.750;11.970;2022-07-23T05:22:25;75022.28;;;-142.11;100.00
14800;BME280;7491;57.750;11.970;2022-07-23T05:24:52;75006.00;;;-142.11;100.00
14800;BME280;7491;57.750;11.970;2022-07-23T05:27:19;75012.09;;;-142.11;100.00
14800;BME280;7491;57.750;11.970;2022-07-23T05:29:45;75014.16;;;-142.11;100.00
14800;BME280;7491;57.750;11.970;2022-07-23T05:32:12;75022.28;;;-142.11;100.00
14800;BME280;7491;57.750;11.970;2022-07-23T05:34:38;75030.44;;;-142.11;100.00
14800;BME280;7491;57.750;11.970;2022-07-23T05:37:05;75038.59;;;-142.11;100.00
14800;BME280;7491;57.750;11.970;2022-07-23T05:39:33;75044.72;;;-142.11;100.00
14800;BME280;7491;57.750;11.970;2022-07-23T05:42:00;75032.47;;;-142.11;100.00
14800;BME280;7491;57.750;11.970;2022-07-23T05:44:26;75036.56;;;-142.11;100.00
14800;BME280;7491;57.750;11.970;2022-07-23T05:46:53;75036.56;;;-142.11;100.00
14800;BME280;7491;57.750;11.970;2022-07-23T05:49:20;75026.38;;;-142.11;100.00
14800;BME280;7491;57.750;11.970;2022-07-23T05:51:46;75030.44;;;-142.11;100.00
14800;BME280;7491;57.750;11.970;2022-07-23T05:54:13;75032.47;;;-142.11;100.00
14800;BME280;7491;57.750;11.970;2022-07-23T05:56:41;75030.44;;;-142.11;100.00
14800;BME280;7491;57.750;11.970;2022-07-23T05:59:09;75036.56;;;-142.11;100.00
14800;BME280;7491;57.750;11.970;2022-07-23T06:01:37;75030.44;;;-142.11;100.00
14800;BME280;7491;57.750;11.970;2022-07-23T06:04:03;75022.28;;;-142.11;100.00
14800;BME280;7491;57.750;11.970;2022-07-23T06:06:30;75034.53;;;-142.11;100.00
14800;BME280;7491;57.750;11.970;2022-07-23T06:08:57;75008.03;;;-142.11;100.00
14800;BME280;7491;57.750;11.970;2022-07-23T06:11:23;75012.09;;;-142.11;100.00
14800;BME280;7491;57.750;11.970;2022-07-23T06:13:51;74999.88;;;-142.11;100.00
14800;BME280;7491;57.750;11.970;2022-07-23T06:16:18;74985.63;;;-142.11;100.00
14800;BME280;7491;57.750;11.970;2022-07-23T06:18:44;75003.97;;;-142.11;100.00
14800;BME280;7491;57.750;11.970;2022-07-23T06:21:11;75020.25;;;-142.11;100.00
14800;BME280;7491;57.750;11.970;2022-07-23T06:23:38;75020.25;;;-142.11;100.00
14800;BME280;7491;57.750;11.970;2022-07-23T06:26:04;75022.28;;;-142.11;100.00
14800;BME280;7491;57.750;11.970;2022-07-23T06:28:31;75024.34;;;-142.11;100.00
14800;BME280;7491;57.750;11.970;2022-07-23T06:30:59;75024.34;;;-142.11;100.00
14800;BME280;7491;57.750;11.970;2022-07-23T06:33:25;75042.69;;;-142.11;100.00
14800;BME280;7491;57.750;11.970;2022-07-23T06:35:52;75040.63;;;-142.11;100.00
14800;BME280;7491;57.750;11.970;2022-07-23T06:38:19;75048.78;;;-142.11;100.00
14800;BME280;7491;57.750;11.970;2022-07-23T06:40:45;75040.63;;;-142.11;100.00
14800;BME280;7491;57.750;11.970;2022-07-23T06:43:12;75022.28;;;-142.11;100.00
14800;BME280;7491;57.750;11.970;2022-07-23T06:45:39;75020.25;;;-142.11;100.00
14800;BME280;7491;57.750;11.970;2022-07-23T06:48:07;75030.44;;;-142.11;100.00
14800;BME280;7491;57.750;11.970;2022-07-23T06:50:33;75028.41;;;-142.11;100.00
14800;BME280;7491;57.750;11.970;2022-07-23T06:53:00;75018.22;;;-142.11;100.00
14800;BME280;7491;57.750;11.970;2022-07-23T06:55:27;75010.06;;;-142.11;100.00
14800;BME280;7491;57.750;11.970;2022-07-23T06:57:54;75003.97;;;-142.11;100.00
14800;BME280;7491;57.750;11.970;2022-07-23T07:00:20;75016.19;;;-142.11;100.00
14800;BME280;7491;57.750;11.970;2022-07-23T07:02:47;75012.09;;;-142.11;100.00
14800;BME280;7491;57.750;11.970;2022-07-23T07:05:15;75022.28;;;-142.11;100.00
14800;BME280;7491;57.750;11.970;2022-07-23T07:07:41;75018.22;;;-142.11;100.00
14800;BME280;7491;57.750;11.970;2022-07-23T07:10:09;75010.06;;;-142.11;100.00
14800;BME280;7491;57.750;11.970;2022-07-23T07:12:35;75014.16;;;-142.11;100.00
14800;BME280;7491;57.750;11.970;2022-07-23T07:15:02;75022.28;;;-142.11;100.00
14800;BME280;7491;57.750;11.970;2022-07-23T07:17:29;75014.16;;;-142.11;100.00
14800;BME280;7491;57.750;11.970;2022-07-23T07:19:56;75020.25;;;-142.11;100.00
14800;BME280;7491;57.750;11.970;2022-07-23T07:22:24;75022.28;;;-142.11;100.00
14800;BME280;7491;57.750;11.970;2022-07-23T07:24:50;75024.34;;;-142.11;100.00
14800;BME280;7491;57.750;11.970;2022-07-23T07:27:17;75032.47;;;-142.11;100.00
14800;BME280;7491;57.750;11.970;2022-07-23T07:29:44;75030.44;;;-142.11;100.00
14800;BME280;7491;57.750;11.970;2022-07-23T07:32:10;75032.47;;;-142.11;100.00
14800;BME280;7491;57.750;11.970;2022-07-23T07:34:37;75022.28;;;-142.11;100.00
14800;BME280;7491;57.750;11.970;2022-07-23T07:37:03;75024.34;;;-142.11;100.00
14800;BME280;7491;57.750;11.970;2022-07-23T07:39:31;75012.09;;;-142.11;100.00
14800;BME280;7491;57.750;11.970;2022-07-23T07:41:58;75014.16;;;-142.11;100.00
14800;BME280;7491;57.750;11.970;2022-07-23T07:44:24;75001.91;;;-142.11;100.00
14800;BME280;7491;57.750;11.970;2022-07-23T07:46:51;75006.00;;;-142.11;100.00
14800;BME280;7491;57.750;11.970;2022-07-23T07:49:18;74997.84;;;-142.11;100.00
14800;BME280;7491;57.750;11.970;2022-07-23T07:51:45;74993.75;;;-142.11;100.00
14800;BME280;7491;57.750;11.970;2022-07-23T07:54:12;74989.69;;;-142.11;100.00
14800;BME280;7491;57.750;11.970;2022-07-23T07:56:40;74991.72;;;-142.11;100.00
14800;BME280;7491;57.750;11.970;2022-07-23T07:59:06;74985.63;;;-142.11;100.00
14800;BME280;7491;57.750;11.970;2022-07-23T08:01:33;74971.34;;;-142.11;100.00
14800;BME280;7491;57.750;11.970;2022-07-23T08:04:00;74959.13;;;-142.11;100.00
14800;BME280;7491;57.750;11.970;2022-07-23T08:06:26;74955.03;;;-142.11;100.00
14800;BME280;7491;57.750;11.970;2022-07-23T08:08:53;74944.84;;;-142.11;100.00
14800;BME280;7491;57.750;11.970;2022-07-23T08:11:20;74948.94;;;-142.11;100.00
14800;BME280;7491;57.750;11.970;2022-07-23T08:13:48;74957.09;;;-142.11;100.00
14800;BME280;7491;57.750;11.970;2022-07-23T08:16:14;74957.09;;;-142.11;100.00
14800;BME280;7491;57.750;11.970;2022-07-23T08:18:41;74969.31;;;-142.11;100.00
14800;BME280;7491;57.750;11.970;2022-07-23T08:21:08;74961.16;;;-142.11;100.00
14800;BME280;7491;57.750;11.970;2022-07-23T08:23:34;74953.00;;;-142.11;100.00
14800;BME280;7491;57.750;11.970;2022-07-23T08:26:01;74969.31;;;-142.11;100.00
14800;BME280;7491;57.750;11.970;2022-07-23T08:28:28;74977.47;;;-142.11;100.00
14800;BME280;7491;57.750;11.970;2022-07-23T08:30:59;74973.38;;;-142.11;100.00
14800;BME280;7491;57.750;11.970;2022-07-23T08:33:26;74981.53;;;-142.11;100.00
14800;BME280;7491;57.750;11.970;2022-07-23T08:35:52;74983.56;;;-142.11;100.00
14800;BME280;7491;57.750;11.970;2022-07-23T08:38:20;74979.50;;;-142.11;100.00
14800;BME280;7491;57.750;11.970;2022-07-23T08:40:48;74973.38;;;-142.11;100.00
14800;BME280;7491;57.750;11.970;2022-07-23T08:43:16;74989.69;;;-142.11;100.00
14800;BME280;7491;57.750;11.970;2022-07-23T08:45:45;74993.75;;;-142.11;100.00
14800;BME280;7491;57.750;11.970;2022-07-23T08:48:15;74979.50;;;-142.11;100.00
14800;BME280;7491;57.750;11.970;2022-07-23T08:50:43;74971.34;;;-142.11;100.00
14800;BME280;7491;57.750;11.970;2022-07-23T08:53:10;74959.13;;;-142.11;100.00
14800;BME280;7491;57.750;11.970;2022-07-23T08:55:37;74953.00;;;-142.11;100.00
14800;BME280;7491;57.750;11.970;2022-07-23T08:58:04;74944.84;;;-142.11;100.00
14800;BME280;7491;57.750;11.970;2022-07-23T09:00:31;74942.81;;;-142.11;100.00
14800;BME280;7491;57.750;11.970;2022-07-23T09:02:58;74942.81;;;-142.11;100.00
14800;BME280;7491;57.750;11.970;2022-07-23T09:05:26;74924.47;;;-142.11;100.00
14800;BME280;7491;57.750;11.970;2022-07-23T09:08:08;74918.38;;;-142.11;100.00
14800;BME280;7491;57.750;11.970;2022-07-23T09:10:50;74914.28;;;-142.11;100.00
14800;BME280;7491;57.750;11.970;2022-07-23T09:13:26;74912.25;;;-142.11;100.00
14800;BME280;7491;57.750;11.970;2022-07-23T09:15:54;74916.31;;;-142.11;100.00
14800;BME280;7491;57.750;11.970;2022-07-23T09:18:29;74936.72;;;-142.11;100.00
14800;BME280;7491;57.750;11.970;2022-07-23T09:21:07;74934.66;;;-142.11;100.00
14800;BME280;7491;57.750;11.970;2022-07-23T09:23:38;74916.31;;;-142.11;100.00
14800;BME280;7491;57.750;11.970;2022-07-23T09:26:18;74930.59;;;-142.11;100.00
14800;BME280;7491;57.750;11.970;2022-07-23T09:28:54;74930.59;;;-142.11;100.00
14800;BME280;7491;57.750;11.970;2022-07-23T09:31:21;74916.31;;;-142.11;100.00
14800;BME280;7491;57.750;11.970;2022-07-23T09:33:48;74908.19;;;-142.11;100.00
14800;BME280;7491;57.750;11.970;2022-07-23T09:36:27;74891.88;;;-142.11;100.00
14800;BME280;7491;57.750;11.970;2022-07-23T09:38:54;74883.72;;;-142.11;100.00
14800;BME280;7491;57.750;11.970;2022-07-23T09:41:20;74879.66;;;-142.11;100.00
14800;BME280;7491;57.750;11.970;2022-07-23T09:43:54;74873.53;;;-142.11;100.00
14800;BME280;7491;57.750;11.970;2022-07-23T09:46:22;74885.75;;;-142.11;100.00
14800;BME280;7491;57.750;11.970;2022-07-23T09:48:50;74885.75;;;-142.11;100.00
14800;BME280;7491;57.750;11.970;2022-07-23T09:51:19;74895.94;;;-142.11;100.00
14800;BME280;7491;57.750;11.970;2022-07-23T09:54:00;74895.94;;;-142.11;100.00
14800;BME280;7491;57.750;11.970;2022-07-23T09:56:27;74887.81;;;-142.11;100.00
14800;BME280;7491;57.750;11.970;2022-07-23T09:58:55;74900.03;;;-142.11;100.00
14800;BME280;7491;57.750;11.970;2022-07-23T10:01:30;74898.00;;;-142.11;100.00
14800;BME280;7491;57.750;11.970;2022-07-23T10:03:58;74893.91;;;-142.11;100.00
14800;BME280;7491;57.750;11.970;2022-07-23T10:06:26;74887.81;;;-142.11;100.00
14800;BME280;7491;57.750;11.970;2022-07-23T10:08:56;74895.94;;;-142.11;100.00
14800;BME280;7491;57.750;11.970;2022-07-23T10:11:25;74902.06;;;-142.11;100.00
14800;BME280;7491;57.750;11.970;2022-07-23T10:13:54;74906.13;;;-142.11;100.00
14800;BME280;7491;57.750;11.970;2022-07-23T10:16:23;74906.13;;;-142.11;100.00
14800;BME280;7491;57.750;11.970;2022-07-23T10:18:50;74906.13;;;-142.11;100.00
14800;BME280;7491;57.750;11.970;2022-07-23T10:21:24;74908.19;;;-142.11;100.00
14800;BME280;7491;57.750;11.970;2022-07-23T10:24:07;74914.28;;;-142.11;100.00
14800;BME280;7491;57.750;11.970;2022-07-23T10:26:41;74934.66;;;-142.11;100.00
14800;BME280;7491;57.750;11.970;2022-07-23T10:29:18;74918.38;;;-142.11;100.00
14800;BME280;7491;57.750;11.970;2022-07-23T10:31:54;74906.13;;;-142.11;100.00
14800;BME280;7491;57.750;11.970;2022-07-23T10:34:27;74895.94;;;-142.11;100.00
14800;BME280;7491;57.750;11.970;2022-07-23T10:37:01;74904.09;;;-142.11;100.00
14800;BME280;7491;57.750;11.970;2022-07-23T10:39:34;74918.38;;;-142.11;100.00
14800;BME280;7491;57.750;11.970;2022-07-23T10:42:09;74898.00;;;-142.11;100.00
14800;BME280;7491;57.750;11.970;2022-07-23T10:44:40;74879.66;;;-142.11;100.00
14800;BME280;7491;57.750;11.970;2022-07-23T10:47:09;74869.47;;;-142.11;100.00
14800;BME280;7491;57.750;11.970;2022-07-23T10:50:21;74855.19;;;-142.11;100.00
14800;BME280;7491;57.750;11.970;2022-07-23T10:53:07;74834.81;;;-142.11;100.00
14800;BME280;7491;57.750;11.970;2022-07-23T10:55:48;74824.63;;;-142.11;100.00
14800;BME280;7491;57.750;11.970;2022-07-23T10:58:45;74826.66;;;-142.11;100.00
14800;BME280;7491;57.750;11.970;2022-07-23T11:01:33;74814.44;;;-142.11;100.00
14800;BME280;7491;57.750;11.970;2022-07-23T11:04:02;74804.25;;;-142.11;100.00
14800;BME280;7491;57.750;11.970;2022-07-23T11:07:06;74779.81;;;-142.11;100.00
14800;BME280;7491;57.750;11.970;2022-07-23T11:09:39;74779.81;;;-142.11;100.00
14800;BME280;7491;57.750;11.970;2022-07-23T11:12:31;74812.41;;;-142.11;100.00
14800;BME280;7491;57.750;11.970;2022-07-23T11:14:58;74785.91;;;-142.11;100.00
14800;BME280;7491;57.750;11.970;2022-07-23T11:17:27;74818.53;;;-142.11;100.00
14800;BME280;7491;57.750;11.970;2022-07-23T11:20:18;74822.59;;;-142.11;100.00
14800;BME280;7491;57.750;11.970;2022-07-23T11:22:54;74810.38;;;-142.11;100.00
14800;BME280;7491;57.750;11.970;2022-07-23T11:25:33;74806.28;;;-142.11;100.00
14800;BME280;7491;57.750;11.970;2022-07-23T11:28:15;74806.28;;;-142.11;100.00
14800;BME280;7491;57.750;11.970;2022-07-23T11:30:43;74781.84;;;-142.11;100.00
14800;BME280;7491;57.750;11.970;2022-07-23T11:33:20;74790.00;;;-142.11;100.00
14800;BME280;7491;57.750;11.970;2022-07-23T11:35:49;74775.72;;;-142.11;100.00
14800;BME280;7491;57.750;11.970;2022-07-23T11:38:17;74783.88;;;-142.11;100.00
14800;BME280;7491;57.750;11.970;2022-07-23T11:40:46;74775.72;;;-142.11;100.00
14800;BME280;7491;57.750;11.970;2022-07-23T11:43:13;74773.69;;;-142.11;100.00
14800;BME280;7491;57.750;11.970;2022-07-23T11:45:41;74763.50;;;-142.11;100.00
14800;BME280;7491;57.750;11.970;2022-07-23T11:48:14;74759.44;;;-142.11;100.00
14800;BME280;7491;57.750;11.970;2022-07-23T11:50:43;74759.44;;;-142.11;100.00
14800;BME280;7491;57.750;11.970;2022-07-23T11:53:09;74751.28;;;-142.11;100.00
14800;BME280;7491;57.750;11.970;2022-07-23T11:55:36;74751.28;;;-142.11;100.00
14800;BME280;7491;57.750;11.970;2022-07-23T11:58:03;74747.19;;;-142.11;100.00
14800;BME280;7491;57.750;11.970;2022-07-23T12:00:30;74747.19;;;-142.11;100.00
14800;BME280;7491;57.750;11.970;2022-07-23T12:03:00;74749.25;;;-142.11;100.00
14800;BME280;7491;57.750;11.970;2022-07-23T12:05:29;74739.03;;;-142.11;100.00
14800;BME280;7491;57.750;11.970;2022-07-23T12:07:58;74741.09;;;-142.11;100.00
14800;BME280;7491;57.750;11.970;2022-07-23T12:10:27;74743.13;;;-142.11;100.00
14800;BME280;7491;57.750;11.970;2022-07-23T12:12:55;74745.16;;;-142.11;100.00
14800;BME280;7491;57.750;11.970;2022-07-23T12:15:24;74734.97;;;-142.11;100.00
14800;BME280;7491;57.750;11.970;2022-07-23T12:17:53;74726.81;;;-142.11;100.00
14800;BME280;7491;57.750;11.970;2022-07-23T12:20:22;74730.91;;;-142.11;100.00
14800;BME280;7491;57.750;11.970;2022-07-23T12:22:51;74706.44;;;-142.11;100.00
14800;BME280;7491;57.750;11.970;2022-07-23T12:25:22;74679.97;;;-142.11;100.00
14800;BME280;7491;57.750;11.970;2022-07-23T12:27:59;74688.09;;;-142.11;100.00
14800;BME280;7491;57.750;11.970;2022-07-23T12:30:28;74659.59;;;-142.11;100.00
14800;BME280;7491;57.750;11.970;2022-07-23T12:32:57;74639.22;;;-142.11;100.00
14800;BME280;7491;57.750;11.970;2022-07-23T12:35:31;74671.81;;;-142.11;100.00
14800;BME280;7491;57.750;11.970;2022-07-23T12:38:01;74671.81;;;-142.11;100.00